Akunia, Virginia
Current Conditions -  °F | °C
As of 12:55 AM on Monday 20 Oct 2014 (Local Time) from KFVX Reporting Station
Clear Clear  
Wind Chill: 37°   Ceiling: Unl
Heat Index: 37°   Visibility: 7mi
Dew Point: 37°   Wind: 0mph
Humidity: 100%   Direction: NA
Pressure: 30.1"   Gusts: NA
Location:  37.6681°N, 78.4131°W
Report Text: KFVX 200455Z AUTO 00000KT 7SM CLR 03/03 A3010 RMK AO2
Loading
Personal Weather Stations






























Interactive Weather Map
Tropical Storm Tracking
New forecast layout! Learn more

10-Day Weather Forecast

Advertisements
Track Severe Weather on mobile